Архив погоды в Бурукане

Метеограмма Бурукан
Среда, 24 Июля
Время местн. Темп Ветер Видим Явления Облачность нижн/средн/верх Атм. давл. Влжн Точка росы ВНГО R Сост. почвы Tg s
Напр Скр Прв ур.ст ур.м изм
07:00 +10.1° С 4 - 20 км - облачно 748 762 +0.9 85% +7.7° 1 км 8 Влажная (без луж) - -
04:00 +10° С,С-В 4 - 50 км небо без изменений {ливневые осадки} облачно 747 761 +1 89% +8.2° 1 км - - - -
01:00 +10.4° С 3 - 10 км слабый ливневый дождь облачно 747 760 +1.2 89% +8.6° 1 км - - - -
Вторник, 23 Июля
Время местн. Темп Ветер Видим Явления Облачность нижн/средн/верх Атм. давл. Влжн Точка росы ВНГО R Сост. почвы Tg s
Напр Скр Прв ур.ст ур.м изм
22:00 +11.1° С,С-З 3 - 10 км слабый ливневый дождь облачно 745 759 +2.3 87% +9° 1 км - - - -
19:00 +12.8° С 3 - 20 км - облачно 743 757 +2.6 80% +9.5° 1 км 0 - - -
16:00 +15.4° С-З 5 12 более 50 км - облачно 740 754 +1.9 65% +8.9° 1 км - - - -
13:00 +17.5° С-З 4 - 50 км - преимущественно облачно 739 752 +0.8 64% +10.7° 1 км - - - -
10:00 +15.3° С 3 - 50 км небо без изменений {ливневые осадки} преимущественно облачно 738 751 +0.1 76% +11° 1 км - - - -
07:00 +11.6° В 2 - 50 км ливневый дождь облачно 738 751 -0.2 90% +10° 1 км 18 Влажная (без луж) - -
04:00 +11.5° С 2 - 10 км слабый ливневый дождь облачно 738 752 -1.4 91% +10.1° 600 м - - - -
01:00 +11.4° С 2 - 10 км слабый ливневый дождь облачно 739 753 -1.4 89% +9.7° 600 м - - - -
Понедельник, 22 Июля
Время местн. Темп Ветер Видим Явления Облачность нижн/средн/верх Атм. давл. Влжн Точка росы ВНГО R Сост. почвы Tg s
Напр Скр Прв ур.ст ур.м изм
22:00 +12.2° С 2 - 10 км слабый ливневый дождь облачно 741 754 -0.7 89% +10.5° 600 м - - - -
19:00 +13.4° В,С-В 2 - 10 км слабый ливневый дождь облачно 741 755 -1.1 87% +11.3° 600 м 4 - - -
16:00 +14.9° С,С-В 2 - 50 км небо без изменений {дождь} облачно 743 756 -1.3 81% +11.6° 1 км - - - -
13:00 +13.8° В,С-В 2 - 10 км слабый непрерывный дождь облачно 744 758 -1.4 85% +11.4° 600 м - - - -
10:00 +12.8° С,С-В 2 - 10 км слабый непрерывный дождь облачно 745 759 -1 88% +10.8° 1 км - - - -
07:00 +11.8° В,С-В 1 - 20 км - облачно 746 760 -1.1 88% +9.8° 1 км 0 Влажная (без луж) - -
04:00 +11.9° С-В 1 - 50 км - облачно 747 761 -1.1 86% +9.7° 1 км - - - -
01:00 +12.1° С-З 1 - 50 км - облачно 749 762 -1.1 85% +9.7° 1 км - - - -
Воскресенье, 21 Июля
Время местн. Темп Ветер Видим Явления Облачность нижн/средн/верх Атм. давл. Влжн Точка росы ВНГО R Сост. почвы Tg s
Напр Скр Прв ур.ст ур.м изм
22:00 +12.4° штиль 0 - 50 км - облачно 750 763 0 85% +9.9° 1 км - - - -
19:00 +13.5° Ю 2 - 50 км - облачно 750 763 +0.2 82% +10.5° 1 км 0 - - -
16:00 +14.5° В 3 - 50 км - облачно 749 763 +0.2 80% +11° 1 км - - - -
13:00 +14.9° В 3 - 50 км - облачно 749 763 +0.5 78% +11.1° 1 км - - - -
10:00 +13.8° В 2 - 50 км ливневый дождь облачно 749 762 +1.2 85% +11.4° 1 км - - - -
07:00 +13.1° В 3 - 10 км слабый ливневый дождь облачно 747 761 +0.8 88% +11.1° 1 км 7 Влажная (без луж) +14° -
04:00 +14.3° С-В 1 - 10 км слабый ливневый дождь облачно 747 760 -0.7 90% +12.7° 1 км - - - -